sensor_id;sensor_type;location;lat;lon;timestamp;pressure;altitude;pressure_sealevel;temperature;humidity
11172;BME280;5642;50.830;12.082;2024-01-27T00:01:01;100841.78;;;7.86;47.50
11172;BME280;5642;50.830;12.082;2024-01-27T00:03:30;100850.47;;;7.90;48.06
11172;BME280;5642;50.830;12.082;2024-01-27T00:05:56;100793.88;;;7.52;48.12
11172;BME280;5642;50.830;12.082;2024-01-27T00:08:25;100836.53;;;7.74;47.64
11172;BME280;5642;50.830;12.082;2024-01-27T00:10:53;100856.53;;;7.82;47.51
11172;BME280;5642;50.830;12.082;2024-01-27T00:13:24;100872.22;;;7.81;48.19
11172;BME280;5642;50.830;12.082;2024-01-27T00:15:51;100836.50;;;7.59;47.82
11172;BME280;5642;50.830;12.082;2024-01-27T00:18:39;100837.34;;;7.62;47.69
11172;BME280;5642;50.830;12.082;2024-01-27T00:21:23;100857.38;;;7.66;48.06
11172;BME280;5642;50.830;12.082;2024-01-27T00:24:13;100866.09;;;7.76;47.94
11172;BME280;5642;50.830;12.082;2024-01-27T00:26:40;100873.91;;;7.76;48.11
11172;BME280;5642;50.830;12.082;2024-01-27T00:29:08;100862.63;;;7.77;48.19
11172;BME280;5642;50.830;12.082;2024-01-27T00:31:50;100750.31;;;7.10;47.99
11172;BME280;5642;50.830;12.082;2024-01-27T00:34:16;100806.88;;;7.46;48.15
11172;BME280;5642;50.830;12.082;2024-01-27T00:36:45;100832.16;;;7.59;47.80
11172;BME280;5642;50.830;12.082;2024-01-27T00:39:15;100873.06;;;7.77;47.75
11172;BME280;5642;50.830;12.082;2024-01-27T00:41:41;100851.28;;;7.64;47.74
11172;BME280;5642;50.830;12.082;2024-01-27T00:44:26;100869.56;;;7.66;47.94
11172;BME280;5642;50.830;12.082;2024-01-27T00:46:53;100855.59;;;7.55;48.05
11172;BME280;5642;50.830;12.082;2024-01-27T00:49:35;100877.34;;;7.60;47.84
11172;BME280;5642;50.830;12.082;2024-01-27T00:52:02;100863.38;;;7.48;48.10
11172;BME280;5642;50.830;12.082;2024-01-27T00:54:45;100860.75;;;7.42;47.96
11172;BME280;5642;50.830;12.082;2024-01-27T00:57:29;100864.25;;;7.43;48.54
11172;BME280;5642;50.830;12.082;2024-01-27T01:00:10;100882.53;;;7.51;47.76
11172;BME280;5642;50.830;12.082;2024-01-27T01:02:37;100872.06;;;7.44;48.05
11172;BME280;5642;50.830;12.082;2024-01-27T01:05:19;100828.44;;;7.07;47.60
11172;BME280;5642;50.830;12.082;2024-01-27T01:08:05;100862.38;;;7.21;48.56
11172;BME280;5642;50.830;12.082;2024-01-27T01:10:33;100910.25;;;7.36;48.25
11172;BME280;5642;50.830;12.082;2024-01-27T01:13:00;100908.53;;;7.41;48.41
11172;BME280;5642;50.830;12.082;2024-01-27T01:15:29;100895.44;;;7.32;48.49
11172;BME280;5642;50.830;12.082;2024-01-27T01:18:13;100884.16;;;7.32;48.01
11172;BME280;5642;50.830;12.082;2024-01-27T01:21:00;100892.03;;;7.41;47.86
11172;BME280;5642;50.830;12.082;2024-01-27T01:23:40;100884.22;;;7.38;48.26
11172;BME280;5642;50.830;12.082;2024-01-27T01:26:08;100929.53;;;7.64;47.70
11172;BME280;5642;50.830;12.082;2024-01-27T01:28:39;100928.63;;;7.62;47.90
11172;BME280;5642;50.830;12.082;2024-01-27T01:31:23;100918.13;;;7.48;47.63
11172;BME280;5642;50.830;12.082;2024-01-27T01:33:49;100933.78;;;7.48;48.19
11172;BME280;5642;50.830;12.082;2024-01-27T01:36:19;100930.22;;;7.34;47.94
11172;BME280;5642;50.830;12.082;2024-01-27T01:38:46;100934.59;;;7.40;48.06
11172;BME280;5642;50.830;12.082;2024-01-27T01:41:16;100912.78;;;7.21;48.07
11172;BME280;5642;50.830;12.082;2024-01-27T01:43:42;100936.31;;;7.35;48.17
11172;BME280;5642;50.830;12.082;2024-01-27T01:46:08;100924.06;;;7.22;48.33
11172;BME280;5642;50.830;12.082;2024-01-27T01:48:36;100942.38;;;7.29;48.65
11172;BME280;5642;50.830;12.082;2024-01-27T01:51:09;100915.25;;;7.04;48.49
11172;BME280;5642;50.830;12.082;2024-01-27T01:53:59;100913.50;;;6.96;48.47
11172;BME280;5642;50.830;12.082;2024-01-27T01:56:38;100942.19;;;7.00;48.49
11172;BME280;5642;50.830;12.082;2024-01-27T01:59:04;100951.75;;;7.06;48.59
11172;BME280;5642;50.830;12.082;2024-01-27T02:01:36;100966.56;;;7.08;48.82
11172;BME280;5642;50.830;12.082;2024-01-27T02:04:04;100965.66;;;7.05;48.67
11172;BME280;5642;50.830;12.082;2024-01-27T02:06:43;100957.72;;;6.91;48.42
11172;BME280;5642;50.830;12.082;2024-01-27T02:09:10;100942.91;;;6.81;48.44
11172;BME280;5642;50.830;12.082;2024-01-27T02:11:42;100966.44;;;6.93;48.48
11172;BME280;5642;50.830;12.082;2024-01-27T02:14:26;100969.00;;;6.90;48.77
11172;BME280;5642;50.830;12.082;2024-01-27T02:17:00;100929.75;;;6.69;48.45
11172;BME280;5642;50.830;12.082;2024-01-27T02:19:45;100977.75;;;6.98;48.63
11172;BME280;5642;50.830;12.082;2024-01-27T02:22:12;100942.91;;;6.84;48.08
11172;BME280;5642;50.830;12.082;2024-01-27T02:24:40;100959.56;;;7.01;48.53
11172;BME280;5642;50.830;12.082;2024-01-27T02:27:09;100884.63;;;6.67;48.18
11172;BME280;5642;50.830;12.082;2024-01-27T02:29:36;100962.25;;;7.14;47.87
11172;BME280;5642;50.830;12.082;2024-01-27T02:32:03;100977.09;;;7.25;48.12
11172;BME280;5642;50.830;12.082;2024-01-27T02:34:31;100950.94;;;7.13;48.33
11172;BME280;5642;50.830;12.082;2024-01-27T02:36:58;100966.66;;;7.27;48.02
11172;BME280;5642;50.830;12.082;2024-01-27T02:39:41;100950.97;;;7.18;48.06
11172;BME280;5642;50.830;12.082;2024-01-27T02:42:11;100963.19;;;7.23;48.41
11172;BME280;5642;50.830;12.082;2024-01-27T02:44:38;100968.38;;;7.20;47.75
11172;BME280;5642;50.830;12.082;2024-01-27T02:47:24;100984.84;;;7.16;48.16
11172;BME280;5642;50.830;12.082;2024-01-27T02:50:07;100891.41;;;6.50;48.44
11172;BME280;5642;50.830;12.082;2024-01-27T02:52:49;100983.81;;;6.97;48.54
11172;BME280;5642;50.830;12.082;2024-01-27T02:55:24;100961.06;;;6.74;48.38
11172;BME280;5642;50.830;12.082;2024-01-27T02:58:09;100974.09;;;6.74;47.87
11172;BME280;5642;50.830;12.082;2024-01-27T03:00:51;100980.09;;;6.68;48.34
11172;BME280;5642;50.830;12.082;2024-01-27T03:03:38;100996.59;;;6.68;48.29
11172;BME280;5642;50.830;12.082;2024-01-27T03:06:17;100977.28;;;6.47;48.66
11172;BME280;5642;50.830;12.082;2024-01-27T03:09:00;100996.41;;;6.50;48.77
11172;BME280;5642;50.830;12.082;2024-01-27T03:11:36;101001.59;;;6.47;48.41
11172;BME280;5642;50.830;12.082;2024-01-27T03:14:06;100953.53;;;6.15;48.41
11172;BME280;5642;50.830;12.082;2024-01-27T03:16:33;100998.88;;;6.37;48.83
11172;BME280;5642;50.830;12.082;2024-01-27T03:19:03;100972.66;;;6.17;48.90
11172;BME280;5642;50.830;12.082;2024-01-27T03:21:29;101005.78;;;6.33;48.68
11172;BME280;5642;50.830;12.082;2024-01-27T03:24:00;100992.69;;;6.27;48.43
11172;BME280;5642;50.830;12.082;2024-01-27T03:26:27;100999.53;;;6.17;48.81
11172;BME280;5642;50.830;12.082;2024-01-27T03:28:56;101006.56;;;6.26;48.67
11172;BME280;5642;50.830;12.082;2024-01-27T03:31:30;100978.53;;;6.01;48.79
11172;BME280;5642;50.830;12.082;2024-01-27T03:33:58;100956.59;;;5.83;48.64
11172;BME280;5642;50.830;12.082;2024-01-27T03:36:28;101016.94;;;6.21;48.71
11172;BME280;5642;50.830;12.082;2024-01-27T03:38:56;100948.78;;;5.83;48.56
11172;BME280;5642;50.830;12.082;2024-01-27T03:41:23;100978.44;;;5.93;48.59
11172;BME280;5642;50.830;12.082;2024-01-27T03:43:50;101004.59;;;6.07;48.61
11172;BME280;5642;50.830;12.082;2024-01-27T03:46:17;101025.53;;;6.16;48.27
11172;BME280;5642;50.830;12.082;2024-01-27T03:48:59;101019.38;;;6.09;48.47
11172;BME280;5642;50.830;12.082;2024-01-27T03:51:44;101028.91;;;6.07;48.85
11172;BME280;5642;50.830;12.082;2024-01-27T03:54:20;101012.28;;;5.95;48.66
11172;BME280;5642;50.830;12.082;2024-01-27T03:57:01;101028.91;;;6.07;48.67
11172;BME280;5642;50.830;12.082;2024-01-27T03:59:29;101028.06;;;6.11;48.55
11172;BME280;5642;50.830;12.082;2024-01-27T04:01:56;100992.31;;;5.94;48.60
11172;BME280;5642;50.830;12.082;2024-01-27T04:04:22;101007.19;;;6.04;48.45
11172;BME280;5642;50.830;12.082;2024-01-27T04:06:51;101014.09;;;6.02;48.64
11172;BME280;5642;50.830;12.082;2024-01-27T04:09:18;100980.00;;;5.83;48.18
11172;BME280;5642;50.830;12.082;2024-01-27T04:11:47;101043.78;;;6.19;48.53
11172;BME280;5642;50.830;12.082;2024-01-27T04:14:13;101023.75;;;6.10;48.59
11172;BME280;5642;50.830;12.082;2024-01-27T04:16:40;101014.13;;;6.03;48.53
11172;BME280;5642;50.830;12.082;2024-01-27T04:19:07;101036.75;;;6.12;48.21
11172;BME280;5642;50.830;12.082;2024-01-27T04:21:34;101001.72;;;5.87;48.26
11172;BME280;5642;50.830;12.082;2024-01-27T04:24:19;101043.69;;;6.10;48.58
11172;BME280;5642;50.830;12.082;2024-01-27T04:26:48;101005.19;;;5.86;48.10
11172;BME280;5642;50.830;12.082;2024-01-27T04:29:14;101052.44;;;6.16;48.27
11172;BME280;5642;50.830;12.082;2024-01-27T04:31:41;101058.50;;;6.18;48.62
11172;BME280;5642;50.830;12.082;2024-01-27T04:34:09;101060.25;;;6.19;48.42
11172;BME280;5642;50.830;12.082;2024-01-27T04:36:35;101045.50;;;6.18;48.18
11172;BME280;5642;50.830;12.082;2024-01-27T04:39:04;100989.66;;;5.90;48.53
11172;BME280;5642;50.830;12.082;2024-01-27T04:41:31;101042.91;;;6.20;48.47
11172;BME280;5642;50.830;12.082;2024-01-27T04:43:59;101044.69;;;6.22;48.53
11172;BME280;5642;50.830;12.082;2024-01-27T04:46:26;101042.13;;;6.27;48.48
11172;BME280;5642;50.830;12.082;2024-01-27T04:48:52;101049.19;;;6.36;48.14
11172;BME280;5642;50.830;12.082;2024-01-27T04:51:21;101034.34;;;6.27;48.21
11172;BME280;5642;50.830;12.082;2024-01-27T04:53:47;101035.25;;;6.31;48.16
11172;BME280;5642;50.830;12.082;2024-01-27T04:56:13;101030.84;;;6.23;48.45
11172;BME280;5642;50.830;12.082;2024-01-27T04:58:43;101050.09;;;6.38;48.37
11172;BME280;5642;50.830;12.082;2024-01-27T05:01:10;101039.50;;;6.22;48.31
11172;BME280;5642;50.830;12.082;2024-01-27T05:03:39;101057.00;;;6.36;48.43
11172;BME280;5642;50.830;12.082;2024-01-27T05:06:09;101010.69;;;6.07;48.39
11172;BME280;5642;50.830;12.082;2024-01-27T05:08:37;101050.84;;;6.29;48.48
11172;BME280;5642;50.830;12.082;2024-01-27T05:11:04;101061.28;;;6.31;48.47
11172;BME280;5642;50.830;12.082;2024-01-27T05:13:35;101055.19;;;6.28;48.54
11172;BME280;5642;50.830;12.082;2024-01-27T05:16:01;101064.69;;;6.25;48.53
11172;BME280;5642;50.830;12.082;2024-01-27T05:18:34;101068.16;;;6.27;48.05
11172;BME280;5642;50.830;12.082;2024-01-27T05:21:04;101076.00;;;6.28;48.50
11172;BME280;5642;50.830;12.082;2024-01-27T05:23:30;101068.94;;;6.20;48.48
11172;BME280;5642;50.830;12.082;2024-01-27T05:25:56;101052.34;;;6.09;48.80
11172;BME280;5642;50.830;12.082;2024-01-27T05:28:25;101013.81;;;5.82;48.68
11172;BME280;5642;50.830;12.082;2024-01-27T05:30:52;101043.50;;;5.96;48.86
11172;BME280;5642;50.830;12.082;2024-01-27T05:33:21;101059.25;;;6.07;48.59
11172;BME280;5642;50.830;12.082;2024-01-27T05:35:59;101087.13;;;6.18;48.60
11172;BME280;5642;50.830;12.082;2024-01-27T05:38:32;101056.59;;;6.05;48.37
11172;BME280;5642;50.830;12.082;2024-01-27T05:41:01;101031.28;;;5.90;48.67
11172;BME280;5642;50.830;12.082;2024-01-27T05:43:29;101067.97;;;6.12;48.46
11172;BME280;5642;50.830;12.082;2024-01-27T05:45:55;101061.06;;;6.14;48.57
11172;BME280;5642;50.830;12.082;2024-01-27T05:48:24;101076.81;;;6.23;48.44
11172;BME280;5642;50.830;12.082;2024-01-27T05:51:00;101080.25;;;6.22;48.17
11172;BME280;5642;50.830;12.082;2024-01-27T05:53:30;101087.25;;;6.24;48.26
11172;BME280;5642;50.830;12.082;2024-01-27T05:55:59;101083.72;;;6.22;48.43
11172;BME280;5642;50.830;12.082;2024-01-27T05:58:28;101082.00;;;6.23;48.39
11172;BME280;5642;50.830;12.082;2024-01-27T06:00:57;101074.09;;;6.15;48.42
11172;BME280;5642;50.830;12.082;2024-01-27T06:03:45;101078.31;;;6.07;48.31
11172;BME280;5642;50.830;12.082;2024-01-27T06:06:11;101076.56;;;6.06;48.63
11172;BME280;5642;50.830;12.082;2024-01-27T06:08:41;101101.81;;;6.13;48.62
11172;BME280;5642;50.830;12.082;2024-01-27T06:11:08;101085.22;;;6.05;48.67
11172;BME280;5642;50.830;12.082;2024-01-27T06:13:37;101073.75;;;5.89;48.68
11172;BME280;5642;50.830;12.082;2024-01-27T06:16:20;101092.03;;;5.94;48.48
11172;BME280;5642;50.830;12.082;2024-01-27T06:18:58;101101.59;;;5.97;48.73
11172;BME280;5642;50.830;12.082;2024-01-27T06:21:36;101119.88;;;6.01;48.94
11172;BME280;5642;50.830;12.082;2024-01-27T06:24:07;101099.78;;;5.89;48.73
11172;BME280;5642;50.830;12.082;2024-01-27T06:26:36;101098.91;;;5.92;48.76
11172;BME280;5642;50.830;12.082;2024-01-27T06:29:30;101112.84;;;5.94;48.62
11172;BME280;5642;50.830;12.082;2024-01-27T06:32:41;101070.75;;;5.65;48.81
11172;BME280;5642;50.830;12.082;2024-01-27T06:35:12;101016.47;;;5.28;48.97
11172;BME280;5642;50.830;12.082;2024-01-27T06:37:43;101113.50;;;5.84;48.77
11172;BME280;5642;50.830;12.082;2024-01-27T06:40:09;101109.13;;;5.80;48.79
11172;BME280;5642;50.830;12.082;2024-01-27T06:42:45;101113.38;;;5.76;48.85
11172;BME280;5642;50.830;12.082;2024-01-27T06:45:17;101019.78;;;5.18;49.16
11172;BME280;5642;50.830;12.082;2024-01-27T06:47:49;101031.06;;;5.20;49.11
11172;BME280;5642;50.830;12.082;2024-01-27T06:50:30;101024.03;;;5.11;49.12
11172;BME280;5642;50.830;12.082;2024-01-27T06:52:58;101039.84;;;5.28;48.69
11172;BME280;5642;50.830;12.082;2024-01-27T06:55:40;101034.56;;;5.22;48.84
11172;BME280;5642;50.830;12.082;2024-01-27T06:58:25;101031.88;;;5.16;48.92
11172;BME280;5642;50.830;12.082;2024-01-27T07:01:18;101027.59;;;5.18;48.92
11172;BME280;5642;50.830;12.082;2024-01-27T07:03:51;101058.91;;;5.28;48.93
11172;BME280;5642;50.830;12.082;2024-01-27T07:06:20;101149.03;;;5.82;48.73
11172;BME280;5642;50.830;12.082;2024-01-27T07:08:49;101115.88;;;5.67;48.74
11172;BME280;5642;50.830;12.082;2024-01-27T07:11:23;101055.53;;;5.34;48.59
11172;BME280;5642;50.830;12.082;2024-01-27T07:13:58;101125.56;;;5.79;48.80
11172;BME280;5642;50.830;12.082;2024-01-27T07:16:27;101129.16;;;5.87;48.53
11172;BME280;5642;50.830;12.082;2024-01-27T07:18:53;101069.03;;;5.66;48.37
11172;BME280;5642;50.830;12.082;2024-01-27T07:21:20;101146.03;;;6.10;48.38
11172;BME280;5642;50.830;12.082;2024-01-27T07:24:02;101136.44;;;6.08;48.03
11172;BME280;5642;50.830;12.082;2024-01-27T07:26:53;101147.84;;;6.16;48.36
11172;BME280;5642;50.830;12.082;2024-01-27T07:32:30;101054.56;;;5.84;48.00
11172;BME280;5642;50.830;12.082;2024-01-27T07:35:18;101069.59;;;6.02;47.74
11172;BME280;5642;50.830;12.082;2024-01-27T07:37:50;101134.44;;;6.52;47.73
11172;BME280;5642;50.830;12.082;2024-01-27T07:40:21;101101.31;;;6.42;47.75
11172;BME280;5642;50.830;12.082;2024-01-27T07:42:49;101142.41;;;6.65;47.64
11172;BME280;5642;50.830;12.082;2024-01-27T07:45:31;101082.28;;;6.47;47.74
11172;BME280;5642;50.830;12.082;2024-01-27T07:48:28;101150.47;;;6.87;47.91
11172;BME280;5642;50.830;12.082;2024-01-27T07:50:59;101103.41;;;6.72;48.03
11172;BME280;5642;50.830;12.082;2024-01-27T07:53:31;101060.66;;;6.54;47.40
11172;BME280;5642;50.830;12.082;2024-01-27T07:56:01;101153.31;;;7.11;47.42
11172;BME280;5642;50.830;12.082;2024-01-27T07:58:30;101129.78;;;7.03;47.36
11172;BME280;5642;50.830;12.082;2024-01-27T08:01:25;101147.31;;;7.18;47.30
11172;BME280;5642;50.830;12.082;2024-01-27T08:03:53;101141.28;;;7.25;46.88
11172;BME280;5642;50.830;12.082;2024-01-27T08:06:27;101104.69;;;7.13;47.51
11172;BME280;5642;50.830;12.082;2024-01-27T08:08:54;101164.13;;;7.51;47.27
11172;BME280;5642;50.830;12.082;2024-01-27T08:11:24;101165.91;;;7.56;46.99
11172;BME280;5642;50.830;12.082;2024-01-27T08:13:50;101153.72;;;7.52;47.35
11172;BME280;5642;50.830;12.082;2024-01-27T08:16:21;101154.63;;;7.56;47.07
11172;BME280;5642;50.830;12.082;2024-01-27T08:18:47;101173.84;;;7.68;46.85
11172;BME280;5642;50.830;12.082;2024-01-27T08:21:14;101175.66;;;7.74;47.17
11172;BME280;5642;50.830;12.082;2024-01-27T08:23:43;101195.78;;;7.89;46.93
11172;BME280;5642;50.830;12.082;2024-01-27T08:26:10;101160.84;;;7.74;47.65
11172;BME280;5642;50.830;12.082;2024-01-27T08:28:40;101186.25;;;7.98;47.28
11172;BME280;5642;50.830;12.082;2024-01-27T08:31:07;101189.78;;;8.06;46.76
11172;BME280;5642;50.830;12.082;2024-01-27T08:33:35;101197.72;;;8.17;46.95
11172;BME280;5642;50.830;12.082;2024-01-27T08:36:01;101185.53;;;8.16;46.93
11172;BME280;5642;50.830;12.082;2024-01-27T08:38:27;101200.44;;;8.32;47.48
11172;BME280;5642;50.830;12.082;2024-01-27T08:40:56;101219.66;;;8.42;47.14
11172;BME280;5642;50.830;12.082;2024-01-27T08:43:25;101181.19;;;8.21;47.22
11172;BME280;5642;50.830;12.082;2024-01-27T08:46:00;101160.25;;;8.13;46.94
11172;BME280;5642;50.830;12.082;2024-01-27T08:48:27;101148.06;;;8.12;46.39
11172;BME280;5642;50.830;12.082;2024-01-27T08:50:53;101236.34;;;8.67;46.81
11172;BME280;5642;50.830;12.082;2024-01-27T08:53:23;101226.75;;;8.64;46.75
11172;BME280;5642;50.830;12.082;2024-01-27T08:55:49;101236.38;;;8.77;47.07
11172;BME280;5642;50.830;12.082;2024-01-27T08:58:20;101164.81;;;8.42;47.08
11172;BME280;5642;50.830;12.082;2024-01-27T09:00:48;101236.44;;;8.89;47.01
11172;BME280;5642;50.830;12.082;2024-01-27T09:03:17;101174.50;;;8.59;47.11
11172;BME280;5642;50.830;12.082;2024-01-27T09:05:55;101193.72;;;8.81;46.90
11172;BME280;5642;50.830;12.082;2024-01-27T09:08:27;101210.31;;;8.97;46.60
11172;BME280;5642;50.830;12.082;2024-01-27T09:11:11;101124.81;;;8.52;46.65
11172;BME280;5642;50.830;12.082;2024-01-27T09:13:41;101208.63;;;9.02;46.84
11172;BME280;5642;50.830;12.082;2024-01-27T09:16:11;101201.66;;;9.06;46.73
11172;BME280;5642;50.830;12.082;2024-01-27T09:18:51;101231.38;;;9.29;46.78
11172;BME280;5642;50.830;12.082;2024-01-27T09:21:19;101218.28;;;9.27;46.56
11172;BME280;5642;50.830;12.082;2024-01-27T09:23:50;101233.13;;;9.40;46.60
11172;BME280;5642;50.830;12.082;2024-01-27T09:26:19;101198.22;;;9.25;46.32
11172;BME280;5642;50.830;12.082;2024-01-27T09:28:46;101230.53;;;9.50;46.77
11172;BME280;5642;50.830;12.082;2024-01-27T09:31:21;101231.41;;;9.53;46.76
11172;BME280;5642;50.830;12.082;2024-01-27T09:33:54;101248.00;;;9.63;46.77
11172;BME280;5642;50.830;12.082;2024-01-27T09:36:23;101247.13;;;9.67;46.73
11172;BME280;5642;50.830;12.082;2024-01-27T09:39:09;101247.13;;;9.68;46.65
11172;BME280;5642;50.830;12.082;2024-01-27T09:41:54;101248.88;;;9.72;46.59
11172;BME280;5642;50.830;12.082;2024-01-27T09:44:42;101225.31;;;9.66;46.39
11172;BME280;5642;50.830;12.082;2024-01-27T09:47:11;101189.56;;;9.52;46.11
11172;BME280;5642;50.830;12.082;2024-01-27T09:49:42;101167.72;;;9.45;46.53
11172;BME280;5642;50.830;12.082;2024-01-27T09:52:12;101178.22;;;9.54;46.48
11172;BME280;5642;50.830;12.082;2024-01-27T09:54:43;101249.78;;;10.00;46.59
11172;BME280;5642;50.830;12.082;2024-01-27T09:57:16;101262.88;;;10.08;46.74
11172;BME280;5642;50.830;12.082;2024-01-27T09:59:47;101164.25;;;9.55;46.65
11172;BME280;5642;50.830;12.082;2024-01-27T10:02:32;101208.75;;;9.86;46.45
11172;BME280;5642;50.830;12.082;2024-01-27T10:05:16;101233.16;;;10.09;46.36
11172;BME280;5642;50.830;12.082;2024-01-27T10:07:58;101193.91;;;9.89;46.58
11172;BME280;5642;50.830;12.082;2024-01-27T10:10:42;101181.69;;;9.88;46.54
11172;BME280;5642;50.830;12.082;2024-01-27T10:13:43;101210.50;;;10.17;46.67
11172;BME280;5642;50.830;12.082;2024-01-27T10:16:22;101183.41;;;10.09;46.43
11172;BME280;5642;50.830;12.082;2024-01-27T10:19:01;101136.34;;;9.94;46.30
11172;BME280;5642;50.830;12.082;2024-01-27T10:21:29;101212.22;;;10.42;46.53
11172;BME280;5642;50.830;12.082;2024-01-27T10:24:05;101144.13;;;10.09;46.41
11172;BME280;5642;50.830;12.082;2024-01-27T10:26:35;101165.09;;;10.27;46.25
11172;BME280;5642;50.830;12.082;2024-01-27T10:29:08;101240.06;;;10.77;46.43
11172;BME280;5642;50.830;12.082;2024-01-27T10:31:54;101207.78;;;10.64;46.82
11172;BME280;5642;50.830;12.082;2024-01-27T10:34:20;101237.41;;;10.87;46.25
11172;BME280;5642;50.830;12.082;2024-01-27T10:36:49;101233.88;;;10.94;46.25
11172;BME280;5642;50.830;12.082;2024-01-27T10:39:20;101241.72;;;11.02;46.37
11172;BME280;5642;50.830;12.082;2024-01-27T10:42:09;101231.78;;;11.60;46.33
11172;BME280;5642;50.830;12.082;2024-01-27T10:44:41;101185.25;;;12.71;46.09
11172;BME280;5642;50.830;12.082;2024-01-27T10:47:32;101137.72;;;13.99;46.12
11172;BME280;5642;50.830;12.082;2024-01-27T10:50:12;101191.50;;;15.97;45.74
11172;BME280;5642;50.830;12.082;2024-01-27T10:52:57;101151.75;;;17.23;45.44
11172;BME280;5642;50.830;12.082;2024-01-27T10:55:46;101212.91;;;18.99;44.99
11172;BME280;5642;50.830;12.082;2024-01-27T10:58:15;101161.59;;;19.65;44.73
11172;BME280;5642;50.830;12.082;2024-01-27T11:00:51;101218.66;;;21.01;44.41
11172;BME280;5642;50.830;12.082;2024-01-27T11:03:23;101140.59;;;21.54;44.16
11172;BME280;5642;50.830;12.082;2024-01-27T11:06:02;101110.91;;;22.31;43.79
11172;BME280;5642;50.830;12.082;2024-01-27T11:08:49;101196.97;;;23.66;43.71
11172;BME280;5642;50.830;12.082;2024-01-27T11:11:22;101114.25;;;23.77;43.24
11172;BME280;5642;50.830;12.082;2024-01-27T11:13:50;101193.16;;;24.74;42.93
11172;BME280;5642;50.830;12.082;2024-01-27T11:16:18;101206.56;;;25.16;42.67
11172;BME280;5642;50.830;12.082;2024-01-27T11:18:48;101185.00;;;25.32;42.93
11172;BME280;5642;50.830;12.082;2024-01-27T11:21:16;101210.38;;;25.82;42.67
11172;BME280;5642;50.830;12.082;2024-01-27T11:23:56;101168.16;;;25.71;42.35
11172;BME280;5642;50.830;12.082;2024-01-27T11:26:23;101147.84;;;25.80;42.19
11172;BME280;5642;50.830;12.082;2024-01-27T11:29:06;101150.28;;;25.97;42.15
11172;BME280;5642;50.830;12.082;2024-01-27T11:31:40;101203.13;;;26.48;42.00
11172;BME280;5642;50.830;12.082;2024-01-27T11:34:13;101218.72;;;26.69;41.80
11172;BME280;5642;50.830;12.082;2024-01-27T11:36:55;101214.97;;;26.71;41.70
11172;BME280;5642;50.830;12.082;2024-01-27T11:39:38;101189.78;;;26.60;41.61
11172;BME280;5642;50.830;12.082;2024-01-27T11:42:25;101163.34;;;26.28;41.40
11172;BME280;5642;50.830;12.082;2024-01-27T11:45:15;101144.38;;;26.04;41.16
11172;BME280;5642;50.830;12.082;2024-01-27T11:47:51;101189.63;;;26.23;40.93
11172;BME280;5642;50.830;12.082;2024-01-27T11:50:18;101212.50;;;26.16;40.33
11172;BME280;5642;50.830;12.082;2024-01-27T11:52:49;101176.53;;;25.79;39.63
11172;BME280;5642;50.830;12.082;2024-01-27T11:55:30;101181.69;;;25.55;39.35
11172;BME280;5642;50.830;12.082;2024-01-27T11:58:04;101159.09;;;25.04;38.58
11172;BME280;5642;50.830;12.082;2024-01-27T12:00:45;101146.84;;;24.43;38.08
11172;BME280;5642;50.830;12.082;2024-01-27T12:03:27;101201.72;;;24.22;37.20
11172;BME280;5642;50.830;12.082;2024-01-27T12:05:56;101209.38;;;23.83;36.79
11172;BME280;5642;50.830;12.082;2024-01-27T12:08:22;101205.91;;;23.33;36.25
11172;BME280;5642;50.830;12.082;2024-01-27T12:11:13;101205.44;;;22.44;36.22
11172;BME280;5642;50.830;12.082;2024-01-27T12:13:45;101168.59;;;21.45;36.48
11172;BME280;5642;50.830;12.082;2024-01-27T12:16:22;101198.19;;;20.63;36.84
11172;BME280;5642;50.830;12.082;2024-01-27T12:18:53;101146.75;;;19.38;37.38
11172;BME280;5642;50.830;12.082;2024-01-27T12:21:51;101202.28;;;18.51;38.12
11172;BME280;5642;50.830;12.082;2024-01-27T12:24:24;101234.63;;;17.84;38.82
11172;BME280;5642;50.830;12.082;2024-01-27T12:26:55;101176.19;;;16.74;39.38
11172;BME280;5642;50.830;12.082;2024-01-27T12:29:48;101154.72;;;15.88;40.01
11172;BME280;5642;50.830;12.082;2024-01-27T12:32:22;101117.75;;;15.14;40.47
11172;BME280;5642;50.830;12.082;2024-01-27T12:35:25;101249.50;;;15.26;40.92
11172;BME280;5642;50.830;12.082;2024-01-27T12:37:59;101156.44;;;14.30;41.07
11172;BME280;5642;50.830;12.082;2024-01-27T12:40:26;101183.03;;;14.18;41.19
11172;BME280;5642;50.830;12.082;2024-01-27T12:43:06;101227.13;;;14.08;41.34
11172;BME280;5642;50.830;12.082;2024-01-27T12:45:33;101230.09;;;13.89;41.32
11172;BME280;5642;50.830;12.082;2024-01-27T12:48:05;101237.34;;;13.75;41.47
11172;BME280;5642;50.830;12.082;2024-01-27T12:50:32;101232.38;;;13.56;41.29
11172;BME280;5642;50.830;12.082;2024-01-27T12:53:22;101230.09;;;13.30;41.36
11172;BME280;5642;50.830;12.082;2024-01-27T12:55:49;101227.66;;;13.15;41.45
11172;BME280;5642;50.830;12.082;2024-01-27T12:58:17;101177.28;;;12.77;41.51
11172;BME280;5642;50.830;12.082;2024-01-27T13:00:44;101207.88;;;12.82;41.47
11172;BME280;5642;50.830;12.082;2024-01-27T13:03:33;101224.59;;;12.78;41.58
11172;BME280;5642;50.830;12.082;2024-01-27T13:06:01;101157.63;;;12.33;41.53
11172;BME280;5642;50.830;12.082;2024-01-27T13:08:43;101144.66;;;12.20;41.49
11172;BME280;5642;50.830;12.082;2024-01-27T13:11:20;101175.16;;;12.30;41.84
11172;BME280;5642;50.830;12.082;2024-01-27T13:14:02;101241.44;;;12.59;41.76
11172;BME280;5642;50.830;12.082;2024-01-27T13:16:46;101171.81;;;12.15;41.47
11172;BME280;5642;50.830;12.082;2024-01-27T13:19:12;101138.00;;;11.85;41.50
11172;BME280;5642;50.830;12.082;2024-01-27T13:21:46;101181.50;;;12.13;41.58
11172;BME280;5642;50.830;12.082;2024-01-27T13:24:16;101165.81;;;12.01;41.56
11172;BME280;5642;50.830;12.082;2024-01-27T13:26:43;101174.63;;;11.99;41.64
11172;BME280;5642;50.830;12.082;2024-01-27T13:29:18;101233.91;;;12.27;41.39
11172;BME280;5642;50.830;12.082;2024-01-27T13:31:45;101257.47;;;12.35;41.53
11172;BME280;5642;50.830;12.082;2024-01-27T13:34:31;101230.53;;;12.14;41.88